createdAt,value
2023-05-07T16:56:11.463Z,17.40
2023-05-07T16:58:38.262Z,17.50
2023-05-07T17:01:05.092Z,17.40
2023-05-07T17:03:32.323Z,17.30
2023-05-07T17:05:59.359Z,17.50
2023-05-07T17:08:28.271Z,17.40
2023-05-07T17:10:57.345Z,17.40
2023-05-07T17:13:24.148Z,17.50
2023-05-07T17:15:50.988Z,17.40
2023-05-07T17:18:20.331Z,17.50
2023-05-07T17:20:47.056Z,17.40
2023-05-07T17:23:13.805Z,17.40
2023-05-07T17:25:45.401Z,17.30
2023-05-07T17:28:13.013Z,17.40
2023-05-07T17:30:46.410Z,17.40
2023-05-07T17:33:20.916Z,17.40
2023-05-07T17:35:53.004Z,17.30
2023-05-07T17:38:19.735Z,17.30
2023-05-07T17:40:46.569Z,17.30
2023-05-07T17:43:13.375Z,17.30
2023-05-07T17:45:40.625Z,17.30
2023-05-07T17:48:07.600Z,17.30
2023-05-07T17:50:34.369Z,17.30
2023-05-07T17:53:02.033Z,17.30
2023-05-07T17:55:30.309Z,17.30
2023-05-07T17:57:59.472Z,17.20
2023-05-07T18:00:26.248Z,17.30
2023-05-07T18:02:55.235Z,17.20
2023-05-07T18:05:24.240Z,17.20
2023-05-07T18:07:51.082Z,17.20
2023-05-07T18:10:20.275Z,17.10
2023-05-07T18:12:47.051Z,17.20
2023-05-07T18:15:16.492Z,17.10
2023-05-07T18:17:43.282Z,17.10
2023-05-07T18:20:11.766Z,17.20
2023-05-07T18:22:41.790Z,17.20
2023-05-07T18:25:08.857Z,17.10
2023-05-07T18:27:35.716Z,17.10
2023-05-07T18:30:02.997Z,17.10
2023-05-07T18:32:31.965Z,17.10
2023-05-07T18:34:58.836Z,17.10
2023-05-07T18:37:28.125Z,17.10
2023-05-07T18:39:54.868Z,17.00
2023-05-07T18:42:21.726Z,17.00
2023-05-07T18:44:48.479Z,17.00
2023-05-07T18:47:15.281Z,17.00
2023-05-07T18:49:42.103Z,16.90
2023-05-07T18:52:08.926Z,16.90
2023-05-07T18:54:35.786Z,16.90
2023-05-07T18:57:02.532Z,16.90
2023-05-07T18:59:29.408Z,16.70
2023-05-07T19:01:58.384Z,16.80
2023-05-07T19:04:25.264Z,16.80
2023-05-07T19:06:52.133Z,16.80
2023-05-07T19:09:18.995Z,16.70
2023-05-07T19:11:45.815Z,16.70
2023-05-07T19:14:12.635Z,16.80
2023-05-07T19:16:42.024Z,16.70
2023-05-07T19:19:09.232Z,16.60
2023-05-07T19:21:38.492Z,16.60
2023-05-07T19:24:05.652Z,16.60
2023-05-07T19:26:32.676Z,16.70
2023-05-07T19:29:12.325Z,16.50
2023-05-07T19:31:43.982Z,16.60
2023-05-07T19:34:10.907Z,16.70
2023-05-07T19:36:40.050Z,16.60
2023-05-07T19:39:07.995Z,16.60
2023-05-07T19:41:34.670Z,16.60
2023-05-07T19:44:01.437Z,16.60
2023-05-07T19:46:28.919Z,16.60
2023-05-07T19:48:55.835Z,16.60
2023-05-07T19:51:22.928Z,16.60
2023-05-07T19:53:49.782Z,16.60
2023-05-07T19:56:16.545Z,16.60
2023-05-07T19:58:44.544Z,16.60
2023-05-07T20:01:11.397Z,16.50
2023-05-07T20:03:41.977Z,16.50
2023-05-07T20:06:08.918Z,16.50
2023-05-07T20:08:35.662Z,16.50
2023-05-07T20:11:03.188Z,16.50
2023-05-07T20:13:30.225Z,16.50
2023-05-07T20:16:02.944Z,16.40
2023-05-07T20:18:29.793Z,16.30
2023-05-07T20:20:56.919Z,16.30
2023-05-07T20:23:23.918Z,16.30
2023-05-07T20:25:50.914Z,16.40
2023-05-07T20:28:17.767Z,16.30
2023-05-07T20:35:41.048Z,16.00
2023-05-07T20:38:10.135Z,16.30
2023-05-07T20:40:37.921Z,16.20
2023-05-07T20:43:06.232Z,16.20
2023-05-07T20:45:33.201Z,16.20
2023-05-07T20:48:00.387Z,16.20
2023-05-07T20:50:27.510Z,16.20
2023-05-07T20:52:54.270Z,16.10
2023-05-07T20:55:23.360Z,16.20
2023-05-07T20:57:52.250Z,16.20
2023-05-07T21:00:19.091Z,16.10
2023-05-07T21:02:46.222Z,16.10
2023-05-07T21:05:13.012Z,16.10
2023-05-07T21:07:39.753Z,16.20
2023-05-07T21:10:09.030Z,16.20
2023-05-07T21:12:35.957Z,16.10
2023-05-07T21:15:02.813Z,16.20
2023-05-07T21:17:31.687Z,16.10
2023-05-07T21:19:58.636Z,16.10
2023-05-07T21:22:27.621Z,16.10
2023-05-07T21:24:54.346Z,16.00
2023-05-07T21:27:21.148Z,16.00
2023-05-07T21:29:47.963Z,16.00
2023-05-07T21:32:14.696Z,16.00
2023-05-07T21:34:41.506Z,16.10
2023-05-07T21:37:10.463Z,16.10
2023-05-07T21:39:37.221Z,16.10
2023-05-07T21:42:04.295Z,16.00
2023-05-07T21:44:31.492Z,16.00
2023-05-07T21:46:58.243Z,16.10
2023-05-07T21:49:25.024Z,16.00
2023-05-07T21:51:51.772Z,16.00
2023-05-07T21:54:18.583Z,16.00
2023-05-07T21:56:49.903Z,16.10
2023-05-07T21:59:21.554Z,16.00
2023-05-07T22:01:48.523Z,16.10
2023-05-07T22:04:15.318Z,16.10
2023-05-07T22:06:42.049Z,16.10
2023-05-07T22:09:11.192Z,16.10
2023-05-07T22:11:38.063Z,16.20
2023-05-07T22:14:04.868Z,16.10
2023-05-07T22:16:31.752Z,16.10
2023-05-07T22:18:58.515Z,16.10
2023-05-07T22:21:25.529Z,16.10
2023-05-07T22:23:52.218Z,16.10
2023-05-07T22:26:22.140Z,16.10
2023-05-07T22:28:48.900Z,16.10
2023-05-07T22:31:15.665Z,16.10
2023-05-07T22:33:42.435Z,16.10
2023-05-07T22:36:11.418Z,16.10
2023-05-07T22:38:40.360Z,16.10
2023-05-07T22:41:07.024Z,16.10
2023-05-07T22:43:33.753Z,16.10
2023-05-07T22:46:01.414Z,16.00
2023-05-07T22:48:29.025Z,16.10
2023-05-07T22:50:55.762Z,16.00
2023-05-07T22:53:25.410Z,16.10
2023-05-07T22:55:52.629Z,16.10
2023-05-07T22:58:19.322Z,16.10
2023-05-07T23:00:46.130Z,16.00
2023-05-07T23:03:13.055Z,16.10
2023-05-07T23:05:40.067Z,16.00
2023-05-07T23:08:08.918Z,16.00
2023-05-07T23:10:35.766Z,16.00
2023-05-07T23:13:02.851Z,15.90
2023-05-07T23:15:29.717Z,15.90
2023-05-07T23:17:59.397Z,15.90
2023-05-07T23:20:26.140Z,15.90
2023-05-07T23:22:52.802Z,15.90
2023-05-07T23:25:19.546Z,16.00
2023-05-07T23:27:46.877Z,15.90
2023-05-07T23:30:14.096Z,15.90
2023-05-07T23:32:41.166Z,15.90
2023-05-07T23:35:08.618Z,16.00
2023-05-07T23:37:35.687Z,15.90
2023-05-07T23:40:02.435Z,16.00
2023-05-07T23:42:29.465Z,15.90
2023-05-07T23:44:56.741Z,15.90
2023-05-07T23:47:24.196Z,15.90
2023-05-07T23:49:53.434Z,16.00
2023-05-07T23:52:20.956Z,16.00
2023-05-07T23:54:49.875Z,15.90
2023-05-07T23:57:16.680Z,15.90
2023-05-07T23:59:43.404Z,16.00
